Last 24 Hours

Thomas Mountain

10 Minute Data | America/Los_Angeles
as of 9/3/26 1:53 AM PDT
Date & Time Temp (°F) Dew Pt (°F) RH (%) Wind Spd (mph) Wind Dir (°) Wind Gust (mph) Wind Gst Dir (°) Daily Max Temp (°F) Daily Min Temp (°F)
9/3/26 - 0150 61.6 -4.7 6 4.6 WNW | 300 8.3 WNW | 297 61.9 60.8
9/3/26 - 0140 61.7 -3.9 7 4.7 WNW | 295 9.6 WNW | 284 61.9 60.8
9/3/26 - 0130 61.1 -2.9 7 2.3 NW | 313 5.8 W | 264 61.8 60.8
9/3/26 - 0120 61.4 0.9 9 4.2 WNW | 301 8.5 WNW | 289 61.8 61.0
9/3/26 - 0110 61.4 5.1 10 4.7 WNW | 287 10.1 W | 270 61.6 61.3
9/3/26 - 0100 61.4 10.3 13 4.4 WNW | 286 8.6 WNW | 286 76.8 56.4
9/3/26 - 0050 61.1 15.3 17 4.7 WNW | 284 9.9 W | 268 76.8 56.4
9/3/26 - 0040 61.3 17.8 18 4.7 WNW | 290 8.9 WNW | 285 76.8 56.4
9/3/26 - 0030 61.3 20.6 21 4.3 WNW | 302 8.3 NW | 314 76.8 56.4
9/3/26 - 0020 61.2 24.7 25 5.4 NW | 312 10.5 WNW | 297 76.8 56.4
9/3/26 - 0010 61.0 33.0 35 5.3 NW | 318 9.4 NW | 324 76.8 56.4
9/3/26 - 0000 60.8 37.9 42 4.3 NW | 304 10.2 W | 273 76.8 56.4
9/2/26 - 2350 61.2 38.1 42 5.4 WNW | 288 10.9 W | 281 76.8 56.4
9/2/26 - 2340 61.1 37.3 41 4.2 WNW | 293 8.1 WNW | 285 76.8 56.4
9/2/26 - 2330 61.2 35.8 39 3.7 WNW | 301 7.7 WNW | 287 76.8 56.4
9/2/26 - 2320 61.5 36.1 39 4.2 WNW | 291 7.8 WNW | 286 76.8 56.4
9/2/26 - 2310 61.5 36.3 39 4.6 WNW | 301 9.5 NW | 311 76.8 56.4
9/2/26 - 2300 61.4 35.6 38 3.5 NW | 310 5.3 NW | 314 76.8 56.4
9/2/26 - 2250 61.5 34.4 36 3.4 NW | 306 5.3 NW | 314 76.8 56.4
9/2/26 - 2240 59.9 32.4 35 4.8 NNW | 332 7.2 N | 2 76.8 56.4
9/2/26 - 2230 58.7 30.6 34 7.0 N | 358 9.0 N | 0 76.8 56.4
9/2/26 - 2220 57.7 29.8 34 7.6 N | 1 11.0 N | 0 76.8 56.4
9/2/26 - 2210 56.8 29.4 35 5.1 N | 4 7.9 NNE | 18 76.8 56.4
9/2/26 - 2200 59.3 27.4 29 4.8 N | 357 7.3 N | 352 76.8 57.5
9/2/26 - 2150 60.5 26.4 27 5.3 NNW | 338 7.3 N | 0 76.8 57.5
9/2/26 - 2140 58.4 28.8 32 6.1 NNW | 342 9.0 NW | 326 76.8 57.5
9/2/26 - 2130 57.8 31.9 37 7.8 N | 349 11.3 N | 353 76.8 57.5
9/2/26 - 2120 58.7 32.6 37 6.7 NNW | 344 9.0 N | 353 76.8 57.9
9/2/26 - 2110 61.9 25.7 25 5.5 NW | 313 11.4 W | 274 76.8 59.5
9/2/26 - 2100 62.2 27.4 26 6.0 WNW | 291 10.3 WNW | 300 76.8 59.5
9/2/26 - 2050 62.6 28.6 27 7.8 W | 281 12.4 WNW | 294 76.8 59.5
9/2/26 - 2040 62.7 29.3 28 8.6 W | 277 13.8 W | 272 76.8 59.5
9/2/26 - 2030 62.7 30.2 29 8.1 WNW | 282 13.1 W | 273 76.8 59.5
9/2/26 - 2020 62.9 31.1 30 6.8 WNW | 283 10.4 WNW | 294 76.8 59.5
9/2/26 - 2010 63.1 31.1 30 5.6 W | 272 8.9 W | 278 76.8 59.5
9/2/26 - 2000 63.7 30.8 29 5.2 W | 276 9.1 W | 262 76.8 59.5
9/2/26 - 1950 63.8 30.1 28 4.7 WNW | 286 6.5 WNW | 293 76.8 59.5
9/2/26 - 1940 64.1 29.8 27 4.6 W | 277 5.7 W | 281 76.8 59.5
9/2/26 - 1930 64.2 29.1 27 4.5 W | 277 6.1 W | 276 76.8 59.5
9/2/26 - 1920 64.8 29.3 26 6.7 WSW | 258 11.1 WSW | 258 76.8 59.5
9/2/26 - 1910 65.6 28.1 24 6.8 WSW | 256 14.0 WSW | 238 76.8 59.5
9/2/26 - 1900 66.5 27.3 23 6.9 W | 270 12.1 W | 269 76.8 59.5
9/2/26 - 1850 67.3 27.2 22 7.4 W | 259 12.6 WSW | 243 76.8 59.5
9/2/26 - 1840 68.1 27.1 21 6.2 W | 261 11.4 WSW | 257 76.8 59.5
9/2/26 - 1830 68.6 26.1 20 8.9 WSW | 248 15.8 WSW | 246 76.8 59.5
9/2/26 - 1820 69.1 23.2 17 10.1 WSW | 248 16.9 WSW | 247 76.8 59.5
9/2/26 - 1810 69.6 22.8 17 10.6 WSW | 246 16.2 WSW | 238 76.8 59.5
9/2/26 - 1800 70.0 22.6 17 9.4 WSW | 254 17.0 W | 260 76.8 59.5
9/2/26 - 1750 70.3 25.0 18 9.1 WSW | 257 17.0 SW | 219 76.8 59.5
9/2/26 - 1740 70.3 24.2 18 10.5 W | 274 17.5 W | 262 76.8 59.5
9/2/26 - 1730 70.8 25.8 18 10.3 W | 261 18.1 W | 259 76.8 59.5
9/2/26 - 1720 70.6 27.9 20 11.7 WSW | 257 20.8 W | 280 76.8 59.5
9/2/26 - 1710 71.1 28.9 21 13.5 WSW | 254 21.8 WSW | 252 76.8 59.5
9/2/26 - 1700 71.2 31.1 23 13.2 W | 259 21.0 W | 278 76.8 59.5
9/2/26 - 1650 71.2 30.5 22 14.5 WSW | 252 23.8 WSW | 254 76.8 59.5
9/2/26 - 1640 71.3 32.1 23 14.9 WSW | 250 23.8 W | 265 76.8 59.5
9/2/26 - 1630 71.7 29.1 21 15.2 WSW | 248 23.6 SW | 232 76.8 59.5
9/2/26 - 1620 72.1 29.4 20 13.1 WSW | 248 21.0 W | 269 76.8 59.5
9/2/26 - 1610 72.2 30.9 22 15.2 WSW | 248 23.7 WSW | 245 76.8 59.5
9/2/26 - 1600 72.6 31.6 22 14.6 WSW | 250 24.0 WSW | 246 76.8 59.5
9/2/26 - 1550 72.8 32.5 23 13.8 WSW | 249 22.8 WSW | 238 76.8 59.5
9/2/26 - 1540 72.9 28.7 19 14.8 WSW | 253 24.0 W | 262 76.8 59.5
9/2/26 - 1530 72.3 28.2 19 15.9 WSW | 244 23.9 WSW | 246 76.8 59.5
9/2/26 - 1520 73.0 28.2 19 15.7 WSW | 248 22.7 WSW | 241 76.8 59.5
9/2/26 - 1510 72.9 28.1 19 14.6 WSW | 252 22.6 WSW | 247 76.8 59.5
9/2/26 - 1500 73.2 27.7 18 12.0 WSW | 256 19.4 WNW | 287 76.8 59.5
9/2/26 - 1450 74.1 28.0 18 12.6 W | 259 30.4 WSW | 241 76.8 59.5
9/2/26 - 1440 73.3 28.5 19 14.3 WSW | 247 24.3 WSW | 251 76.8 59.5
9/2/26 - 1430 74.0 28.5 19 16.1 WSW | 243 27.2 WSW | 250 76.8 59.5
9/2/26 - 1420 73.8 26.0 17 16.2 SW | 236 27.0 WSW | 258 76.8 59.5
9/2/26 - 1410 73.3 23.9 16 15.8 WSW | 239 24.5 WSW | 245 76.8 59.5
9/2/26 - 1400 73.4 22.2 15 16.2 WSW | 242 26.2 WSW | 245 76.8 59.5
9/2/26 - 1350 74.1 19.7 13 15.8 WSW | 241 28.9 SW | 232 76.8 59.5
9/2/26 - 1340 74.9 20.3 13 13.7 WSW | 244 22.4 WSW | 237 76.8 59.5
9/2/26 - 1330 73.8 20.4 13 14.9 WSW | 245 27.0 WSW | 240 74.8 59.5
9/2/26 - 1320 73.8 20.6 13 14.2 WSW | 240 21.8 WSW | 245 74.8 59.5
9/2/26 - 1310 73.8 21.4 14 15.5 SW | 228 25.6 WSW | 242 74.8 59.5
9/2/26 - 1300 73.0 21.4 14 15.8 WSW | 244 24.1 WSW | 252 74.5 59.5
9/2/26 - 1250 72.9 22.1 15 14.9 WSW | 239 23.6 SW | 233 74.5 59.5
9/2/26 - 1240 72.6 22.2 15 14.9 WSW | 237 22.1 SW | 225 74.5 59.5
9/2/26 - 1230 72.7 21.7 15 16.7 WSW | 237 26.2 SW | 226 74.5 59.5
9/2/26 - 1220 73.1 21.4 14 16.3 SW | 235 24.0 WSW | 238 74.5 59.5
9/2/26 - 1210 73.6 21.4 14 13.0 SW | 234 20.1 WSW | 243 74.5 59.5
9/2/26 - 1200 72.1 20.4 14 15.1 WSW | 242 24.1 SW | 224 73.2 59.5
9/2/26 - 1150 72.2 20.0 14 15.2 WSW | 240 24.4 WSW | 237 73.2 59.5
9/2/26 - 1140 70.9 20.1 14 14.0 WSW | 239 22.5 WSW | 238 71.8 59.5
9/2/26 - 1130 70.9 20.4 15 14.6 WSW | 249 22.4 WSW | 248 71.8 59.5
9/2/26 - 1120 70.4 19.9 15 15.1 WSW | 247 25.6 W | 260 71.8 59.5
9/2/26 - 1110 71.1 20.1 14 14.4 WSW | 246 23.8 WSW | 245 71.8 59.5
9/2/26 - 1100 70.8 19.7 14 13.7 WSW | 246 25.5 WSW | 250 71.7 59.5
9/2/26 - 1050 70.3 19.6 14 13.1 WSW | 246 21.5 SW | 236 70.9 59.5
9/2/26 - 1040 70.0 19.6 15 11.6 WSW | 248 19.6 WSW | 247 70.9 59.5
9/2/26 - 1030 69.3 19.4 15 11.0 WSW | 251 18.1 WSW | 249 70.3 59.5
9/2/26 - 1020 69.5 19.4 15 11.6 WSW | 245 20.0 WSW | 258 70.0 59.5
9/2/26 - 1010 68.7 19.0 15 11.5 WSW | 245 20.0 W | 259 69.1 59.5
9/2/26 - 1000 68.6 18.8 15 11.3 WSW | 250 19.2 WSW | 246 68.9 59.5
9/2/26 - 0950 68.4 18.7 15 10.9 WSW | 253 17.8 WSW | 253 68.8 59.5
9/2/26 - 0940 68.5 19.2 15 6.6 W | 266 14.7 WSW | 244 68.8 59.5
9/2/26 - 0930 67.8 19.5 16 6.0 W | 280 13.2 W | 268 68.6 59.5
9/2/26 - 0920 67.1 19.5 16 8.1 W | 261 14.4 WSW | 246 67.6 59.5
9/2/26 - 0910 66.7 19.8 17 8.7 WSW | 254 15.9 WSW | 243 67.1 59.5
9/2/26 - 0900 66.2 20.3 17 7.7 WSW | 241 15.0 WSW | 248 66.6 59.5
9/2/26 - 0850 65.6 20.3 18 7.0 WSW | 243 12.4 WSW | 238 66.0 59.5
9/2/26 - 0840 65.2 20.4 18 7.0 WSW | 253 13.7 W | 269 65.4 59.5
9/2/26 - 0830 65.1 20.3 18 8.2 W | 266 13.9 WNW | 282 65.4 59.5
9/2/26 - 0820 65.3 20.1 18 6.2 W | 262 12.5 WSW | 257 65.4 59.5
9/2/26 - 0810 65.3 19.4 17 5.6 W | 269 11.6 WNW | 297 65.4 59.5
9/2/26 - 0800 65.3 18.5 16 6.3 W | 278 12.2 W | 266 65.4 59.5
9/2/26 - 0750 65.4 17.6 16 5.4 W | 276 11.2 WSW | 250 65.4 59.5
9/2/26 - 0740 64.2 19.2 18 3.6 NW | 313 9.3 SW | 223 65.3 59.5
9/2/26 - 0730 62.8 20.8 20 5.6 N | 3 9.9 N | 6 63.9 59.5
9/2/26 - 0720 62.8 20.3 19 5.3 N | 7 8.6 N | 352 63.9 59.5
9/2/26 - 0710 62.7 19.3 19 5.3 N | 1 10.9 WNW | 291 63.9 59.5
9/2/26 - 0700 62.7 18.2 18 4.2 NNW | 337 10.2 NW | 306 63.9 59.5
9/2/26 - 0650 63.0 17.4 17 3.7 NNW | 337 8.6 NW | 304 63.9 59.5
9/2/26 - 0640 62.9 16.2 16 3.9 NW | 326 10.4 WNW | 282 63.8 59.5
9/2/26 - 0630 62.8 16.0 16 5.4 NNW | 328 15.4 W | 271 63.7 59.5
9/2/26 - 0620 61.0 17.5 18 7.7 NNW | 346 12.2 NW | 325 62.9 59.5
9/2/26 - 0610 60.2 18.6 20 6.9 N | 360 10.2 N | 0 62.4 59.5
9/2/26 - 0600 61.7 18.0 18 5.6 NNW | 342 9.4 NW | 326 62.4 60.1
9/2/26 - 0550 62.1 18.8 18 6.2 NNW | 329 10.3 NW | 314 62.4 60.1
9/2/26 - 0540 61.6 20.3 20 5.6 NW | 323 9.6 NNW | 331 62.1 60.1
9/2/26 - 0530 61.0 25.2 25 5.6 NW | 324 9.9 NW | 317 62.1 60.1
9/2/26 - 0520 61.0 29.6 30 6.6 NW | 311 13.0 W | 278 62.1 60.1
9/2/26 - 0510 61.1 32.2 34 5.8 WNW | 298 12.1 WNW | 294 62.1 60.1
9/2/26 - 0500 61.2 32.6 34 7.9 WNW | 291 14.0 W | 280 62.1 60.1
9/2/26 - 0450 61.4 32.0 33 8.2 WNW | 284 12.9 WNW | 300 62.1 60.1
9/2/26 - 0440 61.6 32.2 33 9.7 W | 276 15.5 W | 280 62.1 60.1
9/2/26 - 0430 61.6 32.1 33 10.5 W | 273 16.5 W | 280 62.1 60.1
9/2/26 - 0420 61.7 32.7 33 10.5 W | 263 19.3 W | 276 62.1 60.1
9/2/26 - 0410 61.7 30.5 31 12.0 W | 264 19.8 W | 269 62.1 60.1
9/2/26 - 0400 61.8 28.8 28 11.4 W | 272 17.6 W | 281 62.1 60.1
9/2/26 - 0350 61.8 26.5 26 11.7 W | 275 17.6 W | 270 62.1 60.1
9/2/26 - 0340 61.9 23.6 23 10.7 W | 278 16.6 WNW | 284 62.1 60.1
9/2/26 - 0330 62.1 21.6 21 12.9 W | 278 18.4 WNW | 289 62.1 60.1
9/2/26 - 0320 62.0 20.4 20 12.9 W | 277 20.3 W | 281 62.1 60.1
9/2/26 - 0310 61.6 19.1 19 11.4 W | 277 16.6 W | 274 61.8 60.1
9/2/26 - 0300 61.3 19.8 20 11.0 W | 279 16.3 W | 274 61.5 60.1
9/2/26 - 0250 61.0 20.6 21 10.3 W | 281 16.3 W | 280 61.2 60.1
9/2/26 - 0240 60.9 21.0 21 10.4 WNW | 283 16.6 W | 281 61.2 60.1
9/2/26 - 0230 60.7 21.8 22 9.7 WNW | 282 15.9 WNW | 283 61.2 60.1
9/2/26 - 0220 60.6 22.6 23 9.4 WNW | 282 15.4 WNW | 299 61.2 60.1
9/2/26 - 0210 60.7 23.0 23 9.7 W | 277 15.3 W | 267 61.2 60.1
9/2/26 - 0200 60.8 22.6 23 9.2 W | 271 14.0 WSW | 250 61.2 60.1
9/2/26 - 0150 60.8 22.5 23 8.7 W | 273 13.9 WNW | 283 61.2 60.1
Max 74.9 38.1 42 16.7 - 30.4 - 76.8 61.3
Avg 65.8 24.0 22 9.2 - 15.6 - - -
Min 56.8 -4.7 6 2.3 - 5.3 - 61.2 56.4